Portada
METAR-TAF:

METAR-TAF

Aeroports :

Danbury Municipal Airport

Danbury, Connecticut, Estats Units d'Amèrica

latitud: 41-22-18N, longitud: 073-29-04W, altitud: 139 m

Observació

L'informe es va fer fa 38 minuts, a les 03:53 UTC
Vent 3 kt del Oest/Sud-Oest
Temperatura -2°C
Humitat 93%
Pressió 1026 hPa
Visibilitat: 12.9 km
Cel clar

METAR: KDXR 310353Z AUTO 24003KT 8SM CLR M02/M03 A3030 RMK AO2 SLP263 I1000 T10221028

Hora: 00:31 (04:31 UTC)


TAF: manca

Observacions i pronòstics meteorològics de més de 4000 aeroports (METAR i TAF).

Les estacions disponibles són els punts grocs i vermells al mapa.

Posi el ratolí al punt desitjat per veure el nom de l'estació.

Feu clic per veure les observacions i els pronòstics meteorològics.

Per canviar el mapa: feu clic els botons verds amb una creu de color negre per apropar; al botó verd amb un guió per allunyar la imatge; o en les fletxes verdes per a mapes adjacents.


METAR-TAF: